Time;durP1;ratioP1;P1;durP2;ratioP2;P2;SDS_P1;SDS_P2;PMS_P1;PMS_P2;Temp;Humidity;BMP_temperature;BMP_pressure;BME280_temperature;BME280_humidity;BME280_pressure;Samples;Min_cycle;Max_cycle;Signal;HPM_P1;HPM_P2
2023/05/26 00:01:47;;;;;;;11.30;8.35;;;14.20;93.00;;;;;;6283788;28;20056;-80
2023/05/26 00:04:49;;;;;;;16.42;8.00;;;14.20;93.10;;;;;;6283248;28;20079;-82
2023/05/26 00:07:51;;;;;;;11.88;7.65;;;14.20;93.20;;;;;;6285323;28;20051;-82
2023/05/26 00:10:53;;;;;;;10.85;8.05;;;14.20;93.30;;;;;;6287887;28;20060;-81
2023/05/26 00:13:56;;;;;;;12.07;8.65;;;14.30;93.40;;;;;;6281215;28;20045;-81
2023/05/26 00:16:57;;;;;;;11.52;7.53;;;14.30;93.50;;;;;;6281339;28;20049;-81
2023/05/26 00:20:00;;;;;;;10.48;7.68;;;14.30;93.60;;;;;;6246102;28;1021487;-81
2023/05/26 00:23:01;;;;;;;9.60;7.82;;;14.30;93.60;;;;;;6283965;28;20059;-81
2023/05/26 00:26:03;;;;;;;10.55;7.70;;;14.30;93.70;;;;;;6283908;28;20060;-81
2023/05/26 00:29:07;;;;;;;14.15;6.82;;;14.30;93.80;;;;;;6280801;28;20503;-81
2023/05/26 00:32:08;;;;;;;11.63;8.55;;;14.30;93.90;;;;;;6280387;28;20041;-81
2023/05/26 00:35:10;;;;;;;9.07;7.50;;;14.20;94.00;;;;;;6281305;28;20045;-82
2023/05/26 00:38:12;;;;;;;13.00;7.82;;;14.10;94.10;;;;;;6284563;28;20051;-81
2023/05/26 00:41:13;;;;;;;10.00;7.97;;;14.00;94.40;;;;;;6286569;28;20051;-82
2023/05/26 00:44:23;;;;;;;9.85;8.55;;;13.90;94.60;;;;;;6283065;28;20047;-82
2023/05/26 00:47:24;;;;;;;13.60;9.43;;;13.70;94.90;;;;;;6278902;28;20056;-82
2023/05/26 00:50:27;;;;;;;11.68;8.50;;;13.60;95.10;;;;;;6286766;28;20041;-82
2023/05/26 00:53:28;;;;;;;11.13;8.57;;;13.50;95.30;;;;;;6282629;28;20095;-79
2023/05/26 00:56:34;;;;;;;17.38;9.25;;;13.50;95.70;;;;;;6282291;28;20049;-80
2023/05/26 00:59:38;;;;;;;11.75;8.85;;;13.50;95.90;;;;;;6282659;28;20048;-81
2023/05/26 01:02:40;;;;;;;11.52;8.25;;;13.40;96.00;;;;;;6283520;28;20061;-81
2023/05/26 01:05:42;;;;;;;12.27;8.00;;;13.40;96.20;;;;;;6283626;28;20056;-81
2023/05/26 01:08:44;;;;;;;12.20;8.70;;;13.40;96.50;;;;;;6278245;28;20045;-81
2023/05/26 01:11:49;;;;;;;15.07;10.80;;;13.40;96.70;;;;;;6275793;28;20055;-81
2023/05/26 01:14:58;;;;;;;11.70;8.32;;;13.40;96.90;;;;;;6275737;28;20053;-80
2023/05/26 01:18:04;;;;;;;11.27;8.02;;;13.40;97.10;;;;;;6274967;28;20049;-81
2023/05/26 01:21:09;;;;;;;13.48;8.02;;;13.40;97.20;;;;;;6274623;28;20047;-81
2023/05/26 01:24:15;;;;;;;11.15;8.25;;;13.40;97.20;;;;;;6275527;28;20052;-82
2023/05/26 01:27:24;;;;;;;13.85;7.55;;;13.50;97.40;;;;;;6275537;28;20059;-82
2023/05/26 01:30:27;;;;;;;14.43;9.80;;;13.50;97.50;;;;;;6275753;28;20053;-81
2023/05/26 01:33:29;;;;;;;12.25;7.82;;;13.60;97.60;;;;;;6274309;28;20045;-81
2023/05/26 01:36:31;;;;;;;12.73;9.02;;;13.50;97.60;;;;;;6274847;28;20136;-82
2023/05/26 01:39:33;;;;;;;9.27;8.38;;;13.60;97.70;;;;;;6276411;28;20044;-82
2023/05/26 01:42:40;;;;;;;13.10;7.43;;;13.70;98.00;;;;;;6283103;28;20059;-81
2023/05/26 01:45:49;;;;;;;11.18;7.03;;;13.70;97.80;;;;;;6292133;28;20049;-82
2023/05/26 01:48:52;;;;;;;10.98;8.55;;;13.70;97.80;;;;;;6282545;28;20048;-81
2023/05/26 01:51:57;;;;;;;11.27;7.55;;;13.80;97.90;;;;;;6282636;28;20052;-81
2023/05/26 01:55:05;;;;;;;14.93;8.75;;;13.80;97.80;;;;;;6284826;28;20089;-81
2023/05/26 01:58:07;;;;;;;9.75;7.18;;;13.80;97.90;;;;;;6281625;28;20519;-82
2023/05/26 02:01:11;;;;;;;14.02;8.80;;;13.80;98.00;;;;;;6280203;28;20048;-82
2023/05/26 02:04:13;;;;;;;7.68;6.90;;;13.80;98.00;;;;;;6281824;28;20055;-82
2023/05/26 02:07:14;;;;;;;15.38;8.73;;;13.80;98.00;;;;;;6284686;28;20060;-82
2023/05/26 02:10:16;;;;;;;14.10;8.18;;;13.80;97.90;;;;;;6285679;28;20041;-81
2023/05/26 02:13:18;;;;;;;14.68;9.02;;;13.80;98.00;;;;;;6284924;28;20048;-82
2023/05/26 02:16:21;;;;;;;15.48;9.07;;;13.80;97.90;;;;;;6284997;28;20052;-82
2023/05/26 02:19:23;;;;;;;13.93;8.98;;;13.80;98.00;;;;;;6284979;28;20049;-82
2023/05/26 02:22:24;;;;;;;11.63;7.28;;;13.80;98.00;;;;;;6284109;28;20045;-81
2023/05/26 02:25:26;;;;;;;16.83;8.55;;;13.80;98.00;;;;;;6282326;28;20555;-81
2023/05/26 02:28:28;;;;;;;14.05;9.63;;;13.80;98.10;;;;;;6284281;28;20044;-82
2023/05/26 02:31:32;;;;;;;16.00;9.50;;;13.80;98.10;;;;;;6284906;28;20063;-82
2023/05/26 02:34:33;;;;;;;15.45;8.90;;;13.70;98.10;;;;;;6286205;28;20099;-82
2023/05/26 02:37:35;;;;;;;9.95;8.02;;;13.70;98.10;;;;;;6285168;28;20048;-82
2023/05/26 02:40:37;;;;;;;11.77;8.65;;;13.70;98.10;;;;;;6286700;28;20052;-81
2023/05/26 02:43:39;;;;;;;13.50;9.50;;;13.70;98.20;;;;;;6285812;28;20052;-82
2023/05/26 02:46:42;;;;;;;16.17;8.95;;;13.60;98.20;;;;;;6287421;28;20053;-82
2023/05/26 02:49:44;;;;;;;11.63;8.68;;;13.60;98.20;;;;;;6286598;28;20044;-81
2023/05/26 02:52:46;;;;;;;12.13;8.30;;;13.60;98.30;;;;;;6285594;28;20113;-81
2023/05/26 02:55:48;;;;;;;13.18;9.70;;;13.60;98.30;;;;;;6285097;28;20136;-82
2023/05/26 02:58:49;;;;;;;12.77;11.15;;;13.60;98.30;;;;;;6284269;28;20065;-82
2023/05/26 03:01:52;;;;;;;12.32;8.68;;;13.50;98.30;;;;;;6284540;28;20044;-82
2023/05/26 03:04:54;;;;;;;15.55;9.57;;;13.50;98.40;;;;;;6285979;28;20041;-82
2023/05/26 03:07:56;;;;;;;11.90;8.32;;;13.50;98.50;;;;;;6286537;28;20040;-81
2023/05/26 03:10:57;;;;;;;13.48;8.73;;;13.50;98.60;;;;;;6287487;28;20045;-82
2023/05/26 03:14:00;;;;;;;13.80;9.30;;;13.40;98.60;;;;;;6285351;28;20041;-82
2023/05/26 03:17:03;;;;;;;12.82;9.70;;;13.40;98.60;;;;;;6286713;28;20499;-81
2023/05/26 03:20:05;;;;;;;11.70;10.27;;;13.40;98.80;;;;;;6287113;28;20044;-82
2023/05/26 03:23:07;;;;;;;14.90;9.52;;;13.30;98.80;;;;;;6286916;28;20104;-81
2023/05/26 03:26:10;;;;;;;14.48;10.40;;;13.30;98.90;;;;;;6286908;28;20302;-82
2023/05/26 03:29:12;;;;;;;11.85;10.35;;;13.30;99.00;;;;;;6286398;28;20041;-81
2023/05/26 03:32:15;;;;;;;16.30;9.82;;;13.20;99.00;;;;;;6281034;28;20041;-81
2023/05/26 03:35:17;;;;;;;12.75;9.95;;;13.20;99.00;;;;;;6278601;28;20056;-82
2023/05/26 03:38:18;;;;;;;15.57;10.43;;;13.10;99.20;;;;;;6277724;28;20425;-82
2023/05/26 03:41:20;;;;;;;14.30;9.57;;;13.20;99.30;;;;;;6278944;28;20045;-83
2023/05/26 03:44:22;;;;;;;12.30;10.10;;;13.20;99.30;;;;;;6278965;28;20056;-83
2023/05/26 03:47:25;;;;;;;11.93;9.02;;;13.20;99.40;;;;;;6279400;28;20088;-83
2023/05/26 03:50:27;;;;;;;12.23;9.57;;;13.20;99.40;;;;;;6278943;28;20041;-83
2023/05/26 03:53:28;;;;;;;19.90;11.57;;;13.10;99.70;;;;;;6279305;28;20060;-83
2023/05/26 03:56:30;;;;;;;13.00;10.52;;;13.10;99.50;;;;;;6280330;28;20430;-83
2023/05/26 03:59:31;;;;;;;19.58;10.40;;;13.10;99.70;;;;;;6280566;28;20041;-82
2023/05/26 04:02:35;;;;;;;16.92;10.23;;;13.10;99.80;;;;;;6280876;28;20495;-82
2023/05/26 04:05:38;;;;;;;15.90;10.05;;;13.20;99.80;;;;;;6281159;28;20531;-82
2023/05/26 04:08:40;;;;;;;15.25;10.27;;;13.20;99.80;;;;;;6297990;28;20056;-82
2023/05/26 04:11:41;;;;;;;15.90;11.10;;;13.10;99.80;;;;;;6300663;28;20059;-81
2023/05/26 04:14:43;;;;;;;20.33;10.90;;;13.10;99.90;;;;;;6300996;28;20060;-82
2023/05/26 04:17:46;;;;;;;19.58;10.95;;;13.10;99.90;;;;;;6300756;28;20075;-82
2023/05/26 04:20:48;;;;;;;14.45;11.30;;;13.20;99.90;;;;;;6301218;28;20051;-82
2023/05/26 04:23:51;;;;;;;18.98;11.50;;;13.20;99.90;;;;;;6301499;28;20063;-81
2023/05/26 04:26:54;;;;;;;16.90;10.23;;;13.20;99.90;;;;;;6302446;28;20120;-82
2023/05/26 04:29:58;;;;;;;16.20;9.93;;;13.20;99.90;;;;;;6300139;28;20037;-82
2023/05/26 04:33:03;;;;;;;12.95;9.90;;;13.30;99.90;;;;;;6300945;28;20159;-82
2023/05/26 04:36:08;;;;;;;12.75;10.30;;;13.40;99.90;;;;;;6301892;28;20123;-82
2023/05/26 04:39:10;;;;;;;13.60;10.23;;;13.50;99.90;;;;;;6303645;28;20086;-83
2023/05/26 04:42:12;;;;;;;13.63;11.40;;;13.60;99.90;;;;;;6308239;28;20049;-82
2023/05/26 04:45:14;;;;;;;14.15;9.32;;;13.80;99.90;;;;;;6294309;28;20041;-82
2023/05/26 04:48:19;;;;;;;20.42;12.45;;;13.90;99.90;;;;;;6281900;28;20097;-83
2023/05/26 04:51:23;;;;;;;17.15;10.63;;;14.00;99.90;;;;;;6282338;28;20059;-82
2023/05/26 04:54:25;;;;;;;17.92;9.52;;;14.20;99.70;;;;;;6281042;28;20044;-82
2023/05/26 04:57:27;;;;;;;16.10;10.25;;;14.10;99.30;;;;;;6280440;28;20048;-83
2023/05/26 05:00:31;;;;;;;12.80;10.68;;;14.30;99.50;;;;;;6281047;28;20430;-83
2023/05/26 05:03:34;;;;;;;16.35;10.35;;;14.30;99.20;;;;;;6281634;28;20449;-83
2023/05/26 05:06:35;;;;;;;16.23;9.95;;;14.70;99.60;;;;;;6281945;28;20136;-83
2023/05/26 05:09:37;;;;;;;11.23;9.13;;;15.40;99.50;;;;;;6281405;28;20048;-82
2023/05/26 05:12:39;;;;;;;13.50;9.68;;;16.40;98.70;;;;;;6281456;28;20049;-83
2023/05/26 05:15:40;;;;;;;16.50;9.60;;;17.10;97.00;;;;;;6281806;28;20060;-83
2023/05/26 05:18:44;;;;;;;12.13;8.73;;;17.60;95.40;;;;;;6281482;28;20053;-83
2023/05/26 05:21:45;;;;;;;14.68;9.55;;;18.00;94.30;;;;;;6281834;28;20041;-84
2023/05/26 05:24:47;;;;;;;15.40;9.68;;;18.40;93.40;;;;;;6280976;28;20056;-83
2023/05/26 05:27:49;;;;;;;16.42;9.82;;;18.80;92.70;;;;;;6280669;28;22310;-83
2023/05/26 05:30:51;;;;;;;12.38;8.88;;;19.40;91.30;;;;;;6278003;28;20053;-82
2023/05/26 05:33:54;;;;;;;12.48;7.88;;;19.70;90.50;;;;;;6277071;28;20042;-83
2023/05/26 05:36:55;;;;;;;13.30;8.07;;;20.10;88.30;;;;;;6278054;28;20044;-83
2023/05/26 05:39:57;;;;;;;12.65;9.05;;;20.40;87.30;;;;;;6278276;28;20048;-82
2023/05/26 05:43:00;;;;;;;11.70;8.77;;;20.80;85.60;;;;;;6279826;28;20259;-83
2023/05/26 05:46:02;;;;;;;14.60;8.45;;;21.10;83.00;;;;;;6279649;28;20051;-83
2023/05/26 05:49:05;;;;;;;10.38;8.68;;;21.20;81.70;;;;;;6291620;23;20328;-81
2023/05/26 05:52:07;;;;;;;10.35;7.63;;;21.70;81.50;;;;;;6263865;28;20507;-80
2023/05/26 05:55:09;;;;;;;16.83;8.95;;;22.10;79.30;;;;;;6248943;28;20064;-81
2023/05/26 05:58:11;;;;;;;12.23;7.60;;;22.20;76.60;;;;;;6248097;28;20049;-81
2023/05/26 06:01:12;;;;;;;12.25;7.18;;;22.30;76.20;;;;;;6272903;28;20045;-81
2023/05/26 06:04:15;;;;;;;8.45;7.40;;;22.40;75.10;;;;;;6272987;28;20041;-81
2023/05/26 06:07:17;;;;;;;9.15;7.45;;;22.70;74.40;;;;;;6273558;28;20072;-81
2023/05/26 06:10:19;;;;;;;13.05;7.60;;;23.20;73.50;;;;;;6272487;28;20037;-81
2023/05/26 06:13:20;;;;;;;13.48;7.50;;;23.60;71.60;;;;;;6273966;28;20055;-81
2023/05/26 06:16:22;;;;;;;9.77;7.25;;;23.70;70.30;;;;;;6273599;28;20049;-81
2023/05/26 06:19:25;;;;;;;8.27;6.70;;;23.90;69.60;;;;;;6273160;28;20049;-81
2023/05/26 06:22:27;;;;;;;12.15;7.80;;;24.20;68.40;;;;;;6273939;28;20060;-81
2023/05/26 06:25:28;;;;;;;12.80;7.28;;;24.60;67.90;;;;;;6275555;28;20052;-81
2023/05/26 06:28:30;;;;;;;14.38;8.60;;;25.00;66.40;;;;;;6273998;28;20056;-81
2023/05/26 06:31:32;;;;;;;9.63;5.93;;;25.00;65.00;;;;;;6275316;28;20041;-81
2023/05/26 06:34:36;;;;;;;10.73;7.32;;;25.00;64.10;;;;;;6275345;28;20143;-82
2023/05/26 06:37:37;;;;;;;9.70;6.28;;;25.10;63.40;;;;;;6275009;28;20052;-82
2023/05/26 06:40:39;;;;;;;15.80;8.45;;;25.00;63.00;;;;;;6269683;28;20037;-82
2023/05/26 06:43:41;;;;;;;9.77;6.57;;;24.80;61.80;;;;;;6255773;28;20057;-81
2023/05/26 06:46:42;;;;;;;12.85;7.70;;;24.60;61.80;;;;;;6188743;28;20054;-81
2023/05/26 06:49:45;;;;;;;9.13;6.43;;;24.40;61.70;;;;;;6234384;28;20046;-81
2023/05/26 06:52:47;;;;;;;11.43;8.68;;;24.20;61.40;;;;;;6254655;28;20045;-80
2023/05/26 06:55:49;;;;;;;13.75;7.63;;;24.30;61.80;;;;;;6253440;28;20049;-81
2023/05/26 06:58:51;;;;;;;11.68;6.32;;;24.60;61.40;;;;;;6254131;28;20065;-81
2023/05/26 07:01:52;;;;;;;9.27;7.03;;;24.80;60.70;;;;;;6248258;28;20049;-82
2023/05/26 07:04:55;;;;;;;13.85;7.00;;;24.90;60.10;;;;;;6246618;28;20045;-84
2023/05/26 07:07:57;;;;;;;10.15;7.78;;;24.20;60.00;;;;;;6245691;28;20449;-82
2023/05/26 07:10:59;;;;;;;13.30;7.25;;;22.90;61.50;;;;;;6248559;28;20402;-83
2023/05/26 07:14:00;;;;;;;12.88;9.15;;;21.90;63.80;;;;;;6245648;28;20046;-83
2023/05/26 07:17:02;;;;;;;10.18;7.72;;;21.20;65.20;;;;;;6243323;28;20052;-84
2023/05/26 07:20:07;;;;;;;9.68;7.53;;;20.50;66.80;;;;;;6245350;28;20552;-84
2023/05/26 07:23:09;;;;;;;12.77;8.55;;;20.10;68.10;;;;;;6247828;28;20523;-83
2023/05/26 07:26:10;;;;;;;12.80;7.95;;;19.80;69.40;;;;;;6238284;28;20041;-81
2023/05/26 07:29:12;;;;;;;14.15;8.57;;;19.60;70.30;;;;;;6246097;28;20441;-84
2023/05/26 07:32:14;;;;;;;18.25;7.65;;;19.50;71.10;;;;;;6249759;28;20069;-83
2023/05/26 07:35:17;;;;;;;13.60;8.35;;;19.70;71.70;;;;;;6248644;28;20049;-85
2023/05/26 07:38:18;;;;;;;16.88;9.27;;;19.80;71.60;;;;;;6245953;28;20048;-85
2023/05/26 07:41:21;;;;;;;14.70;9.25;;;20.00;71.90;;;;;;6247922;28;20057;-83
2023/05/26 07:44:23;;;;;;;10.68;8.05;;;20.20;72.00;;;;;;6247674;28;20052;-84
2023/05/26 07:47:25;;;;;;;14.48;8.45;;;20.20;72.10;;;;;;6241666;28;20132;-83
2023/05/26 07:50:28;;;;;;;13.57;8.82;;;20.30;72.50;;;;;;6242835;28;20056;-83
2023/05/26 07:53:30;;;;;;;10.07;7.43;;;20.40;72.20;;;;;;6242902;28;20049;-83
2023/05/26 07:56:31;;;;;;;20.38;8.57;;;20.40;72.60;;;;;;6244478;28;20068;-82
2023/05/26 07:59:33;;;;;;;10.55;7.50;;;20.60;72.10;;;;;;6241202;28;20078;-83
2023/05/26 08:02:35;;;;;;;9.52;8.13;;;20.50;72.20;;;;;;6240378;28;20407;-82
2023/05/26 08:05:38;;;;;;;12.88;7.88;;;20.60;72.10;;;;;;6245624;28;20412;-84
2023/05/26 08:08:40;;;;;;;12.27;8.82;;;20.60;72.50;;;;;;6244755;28;20048;-83
2023/05/26 08:11:42;;;;;;;12.82;7.95;;;20.70;72.20;;;;;;6245888;28;20046;-84
2023/05/26 08:14:43;;;;;;;20.13;8.00;;;20.70;71.90;;;;;;6247156;28;20070;-81
2023/05/26 08:17:45;;;;;;;12.80;8.73;;;20.60;72.10;;;;;;6242095;28;20053;-81
2023/05/26 08:20:52;;;;;;;12.30;7.97;;;20.60;72.90;;;;;;6249908;28;20494;-83
2023/05/26 08:23:54;;;;;;;12.77;10.07;;;21.10;73.10;;;;;;6247037;28;20049;-82
2023/05/26 08:26:55;;;;;;;15.38;9.60;;;21.50;72.10;;;;;;6247856;28;20053;-82
2023/05/26 08:29:57;;;;;;;15.45;8.50;;;21.60;71.20;;;;;;6243766;28;20042;-82
2023/05/26 08:32:59;;;;;;;13.48;8.38;;;21.70;71.10;;;;;;6249503;28;20045;-84
2023/05/26 08:36:02;;;;;;;10.85;8.90;;;21.70;70.60;;;;;;6244285;28;20068;-83
2023/05/26 08:39:04;;;;;;;9.13;7.13;;;21.60;71.00;;;;;;6239100;28;20052;-82
2023/05/26 08:42:07;;;;;;;14.90;8.50;;;21.90;71.20;;;;;;6235713;28;20041;-81
2023/05/26 08:45:10;;;;;;;21.42;9.63;;;22.00;71.10;;;;;;6239151;28;20046;-83
2023/05/26 08:48:12;;;;;;;12.02;8.55;;;22.00;70.50;;;;;;6238047;28;20052;-82
2023/05/26 08:51:15;;;;;;;9.35;6.78;;;22.10;70.70;;;;;;6237779;28;20060;-80
2023/05/26 08:54:17;;;;;;;13.35;7.82;;;22.30;70.40;;;;;;6236229;28;20057;-83
2023/05/26 08:57:20;;;;;;;12.27;8.48;;;22.50;69.60;;;;;;6239114;28;20049;-81
2023/05/26 09:00:22;;;;;;;12.80;8.32;;;22.50;69.90;;;;;;6240175;28;20060;-84
2023/05/26 09:03:24;;;;;;;11.55;8.50;;;22.40;69.10;;;;;;6242822;28;20049;-83
2023/05/26 09:06:27;;;;;;;15.73;10.05;;;22.30;69.40;;;;;;6245562;28;20053;-84
2023/05/26 09:09:30;;;;;;;13.57;8.02;;;22.30;69.20;;;;;;6239201;28;20042;-83
2023/05/26 09:12:41;;;;;;;11.95;7.90;;;22.20;69.50;;;;;;6246624;28;20053;-82
2023/05/26 09:15:43;;;;;;;9.20;7.45;;;22.40;68.80;;;;;;6244043;28;20046;-82
2023/05/26 09:18:45;;;;;;;15.57;7.72;;;22.70;68.90;;;;;;6244214;28;20056;-81
2023/05/26 09:21:49;;;;;;;14.48;9.70;;;22.90;67.80;;;;;;6247674;28;20053;-81
2023/05/26 09:24:51;;;;;;;14.27;8.50;;;23.00;67.50;;;;;;6248061;28;20049;-80
2023/05/26 09:27:59;;;;;;;12.07;7.03;;;23.00;67.30;;;;;;6244964;28;20045;-81
2023/05/26 09:31:01;;;;;;;14.23;6.70;;;23.00;67.20;;;;;;6246651;28;20061;-82
2023/05/26 09:34:02;;;;;;;9.65;6.50;;;22.90;67.50;;;;;;6240669;28;20056;-82
2023/05/26 09:37:09;;;;;;;9.93;6.47;;;23.00;67.40;;;;;;6242571;28;20446;-81
2023/05/26 09:40:13;;;;;;;15.82;7.57;;;23.30;67.50;;;;;;6248787;28;20060;-81
2023/05/26 09:43:18;;;;;;;9.18;5.80;;;23.60;66.90;;;;;;6241442;28;20069;-81
2023/05/26 09:46:26;;;;;;;12.15;7.18;;;23.60;66.10;;;;;;6244482;28;20057;-81
2023/05/26 09:49:27;;;;;;;12.73;8.60;;;23.60;66.60;;;;;;6245282;28;20071;-82
2023/05/26 09:52:32;;;;;;;13.43;7.47;;;23.70;66.70;;;;;;6246533;28;20050;-81
2023/05/26 09:55:36;;;;;;;13.85;8.93;;;24.00;66.40;;;;;;6245562;28;20053;-79
2023/05/26 09:58:40;;;;;;;12.18;7.03;;;24.40;66.20;;;;;;6241343;28;20187;-81
2023/05/26 10:01:43;;;;;;;10.25;6.65;;;24.60;65.90;;;;;;6243684;28;20033;-81
2023/05/26 10:04:46;;;;;;;9.25;7.68;;;24.80;65.70;;;;;;6242374;28;20050;-80
2023/05/26 10:07:52;;;;;;;10.90;7.50;;;25.00;65.10;;;;;;6246854;28;20049;-80
2023/05/26 10:10:54;;;;;;;15.60;8.18;;;25.20;64.80;;;;;;6249843;28;20041;-81
2023/05/26 10:13:56;;;;;;;12.00;6.80;;;25.40;64.20;;;;;;6237727;28;20049;-81
2023/05/26 10:16:58;;;;;;;11.75;6.40;;;25.50;62.60;;;;;;6240893;28;20116;-81
2023/05/26 10:20:01;;;;;;;15.77;8.82;;;25.40;61.70;;;;;;6240726;28;20060;-81
2023/05/26 10:23:08;;;;;;;10.43;7.22;;;25.20;61.90;;;;;;6239617;28;20049;-83
2023/05/26 10:26:18;;;;;;;17.98;7.68;;;25.40;62.50;;;;;;6240036;28;20392;-83
2023/05/26 10:29:28;;;;;;;13.20;8.00;;;25.60;62.60;;;;;;6249385;28;20046;-81
2023/05/26 10:32:42;;;;;;;11.10;7.25;;;26.00;62.00;;;;;;6241658;28;20045;-80
2023/05/26 10:35:55;;;;;;;16.10;7.80;;;26.40;62.30;;;;;;6252764;28;20053;-81
2023/05/26 10:38:58;;;;;;;10.52;6.72;;;26.60;60.80;;;;;;6250099;28;20068;-82
2023/05/26 10:42:00;;;;;;;11.45;7.43;;;26.90;60.40;;;;;;6248658;28;20061;-79
2023/05/26 10:45:16;;;;;;;12.20;6.57;;;27.00;59.90;;;;;;6248043;28;20044;-82
2023/05/26 10:48:18;;;;;;;11.88;7.13;;;27.20;59.60;;;;;;6252875;28;20060;-81
2023/05/26 10:51:26;;;;;;;8.10;6.18;;;27.50;59.10;;;;;;6245882;28;20048;-81
2023/05/26 10:54:29;;;;;;;10.30;5.95;;;27.80;58.00;;;;;;6250004;28;20068;-81
2023/05/26 10:57:32;;;;;;;13.32;7.35;;;28.00;56.50;;;;;;6243805;28;20077;-78
2023/05/26 11:00:35;;;;;;;14.82;7.13;;;27.90;56.10;;;;;;6251504;28;20408;-80
2023/05/26 11:03:40;;;;;;;10.20;6.07;;;28.10;56.10;;;;;;6249164;28;20410;-81
2023/05/26 11:06:46;;;;;;;8.73;5.68;;;28.40;55.00;;;;;;6247316;28;20064;-81
2023/05/26 11:10:02;;;;;;;7.15;5.60;;;28.30;55.00;;;;;;6244506;28;20057;-80
2023/05/26 11:13:03;;;;;;;16.67;7.90;;;28.10;54.10;;;;;;6241569;28;20121;-80
2023/05/26 11:16:21;;;;;;;10.18;6.68;;;27.80;54.00;;;;;;6243263;28;20057;-82
2023/05/26 11:19:31;;;;;;;9.15;5.28;;;27.70;54.30;;;;;;6241131;28;20061;-80
2023/05/26 11:22:34;;;;;;;12.15;7.20;;;27.40;54.30;;;;;;6244370;28;20048;-80
2023/05/26 11:25:45;;;;;;;17.63;14.88;;;27.50;54.50;;;;;;6243781;28;20060;-79
2023/05/26 11:28:47;;;;;;;10.98;7.25;;;27.80;54.50;;;;;;6243707;28;20045;-80
2023/05/26 11:31:50;;;;;;;11.40;7.28;;;28.30;54.40;;;;;;6243847;28;20061;-80
2023/05/26 11:34:51;;;;;;;8.75;7.85;;;28.70;53.30;;;;;;6242370;28;20053;-81
2023/05/26 11:37:55;;;;;;;17.13;7.65;;;28.70;53.00;;;;;;6239837;28;20060;-79
2023/05/26 11:40:58;;;;;;;7.82;6.47;;;28.60;52.70;;;;;;6241870;28;20045;-81
2023/05/26 11:44:00;;;;;;;11.77;8.48;;;28.70;52.90;;;;;;6244313;28;20387;-82
2023/05/26 11:47:02;;;;;;;10.05;8.20;;;28.40;52.10;;;;;;6245295;28;20053;-81
2023/05/26 11:50:07;;;;;;;17.38;15.10;;;28.10;53.00;;;;;;6242841;28;20045;-80
2023/05/26 11:53:09;;;;;;;9.82;7.63;;;28.50;53.40;;;;;;6243147;28;20041;-80
2023/05/26 11:56:13;;;;;;;9.00;4.72;;;29.20;52.90;;;;;;6241387;28;20045;-82
2023/05/26 11:59:19;;;;;;;19.42;9.00;;;29.40;52.00;;;;;;6240487;28;20053;-81
2023/05/26 12:02:20;;;;;;;10.48;6.22;;;29.30;51.10;;;;;;6243481;28;20061;-81
2023/05/26 12:05:25;;;;;;;8.57;5.53;;;29.10;51.20;;;;;;6241250;28;20041;-81
2023/05/26 12:08:27;;;;;;;9.93;5.93;;;29.40;51.20;;;;;;6241584;28;20195;-81
2023/05/26 12:11:34;;;;;;;13.00;6.50;;;29.50;50.80;;;;;;6243586;28;20149;-81
2023/05/26 12:14:38;;;;;;;6.35;5.75;;;29.70;50.00;;;;;;6243862;28;20071;-79
2023/05/26 12:17:40;;;;;;;8.95;5.68;;;29.10;49.50;;;;;;6241227;28;20049;-81
2023/05/26 12:20:42;;;;;;;9.18;6.03;;;28.70;50.00;;;;;;6239999;28;20045;-80
2023/05/26 12:23:43;;;;;;;10.68;5.93;;;28.60;49.80;;;;;;6238124;28;20033;-79
2023/05/26 12:26:48;;;;;;;13.45;6.03;;;28.60;50.70;;;;;;6239487;28;20048;-79
2023/05/26 12:29:52;;;;;;;6.78;5.25;;;29.00;50.50;;;;;;6239253;28;20504;-81
2023/05/26 12:32:54;;;;;;;8.13;5.63;;;29.10;49.90;;;;;;6239418;28;20136;-79
2023/05/26 12:35:56;;;;;;;13.45;5.82;;;28.70;50.50;;;;;;6240265;28;20088;-80
2023/05/26 12:38:58;;;;;;;8.30;5.60;;;29.00;50.00;;;;;;6248484;28;20068;-79
2023/05/26 12:42:01;;;;;;;7.35;5.28;;;29.40;49.80;;;;;;6237621;28;20689;-79
2023/05/26 12:45:03;;;;;;;6.95;4.68;;;29.70;48.30;;;;;;6239188;28;20045;-79
2023/05/26 12:48:05;;;;;;;6.57;5.38;;;29.60;47.80;;;;;;6236392;28;20049;-81
2023/05/26 12:51:07;;;;;;;8.43;6.18;;;29.50;47.00;;;;;;6240737;28;20065;-80
2023/05/26 12:54:10;;;;;;;9.35;5.03;;;29.30;47.30;;;;;;6237649;28;20467;-81
2023/05/26 12:57:13;;;;;;;7.60;5.10;;;29.40;47.40;;;;;;6237904;28;20045;-80
2023/05/26 13:00:15;;;;;;;7.18;4.57;;;29.60;47.60;;;;;;6237538;28;20946;-80
2023/05/26 13:03:17;;;;;;;6.47;4.93;;;29.70;47.40;;;;;;6242382;28;20048;-80
2023/05/26 13:06:21;;;;;;;10.75;5.30;;;29.80;47.00;;;;;;6241940;28;20061;-79
2023/05/26 13:09:24;;;;;;;6.65;5.13;;;29.60;47.10;;;;;;6235117;28;20060;-80
2023/05/26 13:12:27;;;;;;;6.60;5.35;;;29.40;46.70;;;;;;6241573;28;20084;-80
2023/05/26 13:15:29;;;;;;;7.00;5.30;;;29.60;47.40;;;;;;6242787;28;20060;-80
2023/05/26 13:18:31;;;;;;;6.68;4.72;;;29.90;47.20;;;;;;6242732;28;20132;-80
2023/05/26 13:21:33;;;;;;;5.63;4.72;;;30.10;46.10;;;;;;6242131;28;20075;-81
2023/05/26 13:24:35;;;;;;;7.25;4.85;;;29.80;46.30;;;;;;6247483;28;20591;-81
2023/05/26 13:27:38;;;;;;;7.60;4.95;;;30.00;46.00;;;;;;6243977;28;20166;-79
2023/05/26 13:30:40;;;;;;;6.50;5.90;;;30.30;45.20;;;;;;6250135;28;20627;-79
2023/05/26 13:33:42;;;;;;;7.80;4.97;;;30.20;46.00;;;;;;6246008;28;20049;-79
2023/05/26 13:36:45;;;;;;;4.82;4.32;;;30.50;46.20;;;;;;6244692;28;20060;-81
2023/05/26 13:39:46;;;;;;;6.85;5.22;;;30.70;46.30;;;;;;6242853;28;20134;-80
2023/05/26 13:42:50;;;;;;;9.50;6.22;;;30.70;46.00;;;;;;6245589;28;20117;-81
2023/05/26 13:45:52;;;;;;;5.90;5.32;;;30.50;46.00;;;;;;6243359;28;20048;-79
2023/05/26 13:48:54;;;;;;;5.82;5.18;;;30.10;45.60;;;;;;6248082;28;20072;-80
2023/05/26 13:52:01;;;;;;;6.47;5.88;;;29.80;46.40;;;;;;6240346;28;20064;-80
2023/05/26 13:55:04;;;;;;;8.90;5.30;;;30.20;46.70;;;;;;6239706;28;20049;-79
2023/05/26 13:58:07;;;;;;;5.40;4.88;;;30.30;46.00;;;;;;6234317;28;20049;-80
2023/05/26 14:01:09;;;;;;;8.40;5.32;;;30.30;46.10;;;;;;6238112;28;20061;-80
2023/05/26 14:04:11;;;;;;;9.90;5.32;;;30.50;46.00;;;;;;6240843;28;20072;-79
2023/05/26 14:07:13;;;;;;;8.10;5.88;;;30.60;45.50;;;;;;6241777;28;20061;-80
2023/05/26 14:10:16;;;;;;;10.68;5.65;;;30.40;45.40;;;;;;6239335;28;20045;-81
2023/05/26 14:13:19;;;;;;;6.57;5.03;;;30.00;45.80;;;;;;6240836;28;20060;-80
2023/05/26 14:16:20;;;;;;;6.47;5.03;;;29.70;46.50;;;;;;6238990;28;20057;-80
2023/05/26 14:19:22;;;;;;;10.90;5.25;;;29.60;46.40;;;;;;6240972;28;20053;-79
2023/05/26 14:22:24;;;;;;;8.40;6.03;;;29.20;46.90;;;;;;6248140;28;20064;-78
2023/05/26 14:25:25;;;;;;;6.30;5.50;;;28.80;46.90;;;;;;6250675;28;21400;-81
2023/05/26 14:28:28;;;;;;;9.85;5.22;;;28.70;46.90;;;;;;6250165;28;20487;-79
2023/05/26 14:31:30;;;;;;;8.82;5.28;;;28.90;47.50;;;;;;6250071;28;20128;-80
2023/05/26 14:34:32;;;;;;;7.40;4.97;;;29.20;47.40;;;;;;6253596;28;20053;-80
2023/05/26 14:37:34;;;;;;;9.35;5.38;;;29.60;47.00;;;;;;6247552;28;20514;-80
2023/05/26 14:40:36;;;;;;;7.03;5.03;;;29.80;47.10;;;;;;6248402;28;20523;-79
2023/05/26 14:43:39;;;;;;;7.30;5.40;;;30.00;46.70;;;;;;6253747;28;20049;-81
2023/05/26 14:46:41;;;;;;;7.47;4.85;;;30.30;46.40;;;;;;6248284;28;20056;-80
2023/05/26 14:49:43;;;;;;;6.35;4.78;;;30.40;46.30;;;;;;6249794;28;20044;-81
2023/05/26 14:52:44;;;;;;;9.57;5.28;;;30.30;46.00;;;;;;6248262;28;20049;-83
2023/05/26 14:55:46;;;;;;;7.05;4.78;;;30.20;45.70;;;;;;6246046;28;20049;-79
2023/05/26 14:58:49;;;;;;;8.32;4.78;;;30.00;45.90;;;;;;6247991;28;20049;-78
2023/05/26 15:01:52;;;;;;;7.07;4.90;;;30.00;46.00;;;;;;6253030;28;20135;-81
2023/05/26 15:04:53;;;;;;;7.40;4.65;;;30.10;45.60;;;;;;6251391;28;20037;-81
2023/05/26 15:07:55;;;;;;;6.70;4.95;;;30.40;45.60;;;;;;6248454;28;20049;-80
2023/05/26 15:10:57;;;;;;;5.35;4.82;;;30.50;44.90;;;;;;6247745;28;20041;-80
2023/05/26 15:14:00;;;;;;;7.30;4.80;;;30.40;44.80;;;;;;6250314;28;20040;-79
2023/05/26 15:17:02;;;;;;;4.75;4.20;;;30.30;44.30;;;;;;6251042;28;20056;-79
2023/05/26 15:20:05;;;;;;;7.15;4.65;;;30.30;44.70;;;;;;6252846;28;20053;-79
2023/05/26 15:23:06;;;;;;;6.95;5.18;;;30.50;44.80;;;;;;6250766;28;20037;-80
2023/05/26 15:26:08;;;;;;;6.53;4.97;;;30.60;44.60;;;;;;6248593;28;20460;-80
2023/05/26 15:29:14;;;;;;;5.60;5.03;;;30.80;44.30;;;;;;6249803;28;20516;-79
2023/05/26 15:32:15;;;;;;;6.68;4.57;;;30.90;44.00;;;;;;6249244;28;20562;-79
2023/05/26 15:35:19;;;;;;;5.75;4.72;;;30.80;43.90;;;;;;6251768;28;20064;-79
2023/05/26 15:38:21;;;;;;;6.13;4.47;;;30.40;44.20;;;;;;6251827;28;20058;-79
2023/05/26 15:41:23;;;;;;;6.95;4.88;;;30.20;44.60;;;;;;6254549;28;20049;-80